createdAt,value
2023-03-17T00:01:20.889Z,4.90
2023-03-17T00:05:26.098Z,5.00
2023-03-17T00:09:28.877Z,4.93
2023-03-17T00:13:32.044Z,4.77
2023-03-17T00:17:35.070Z,4.50
2023-03-17T00:21:39.099Z,4.43
2023-03-17T00:25:43.221Z,4.67
2023-03-17T00:29:46.956Z,4.40
2023-03-17T00:33:52.170Z,4.70
2023-03-17T00:37:57.675Z,4.60
2023-03-17T00:42:00.544Z,4.13
2023-03-17T00:46:06.760Z,4.07
2023-03-17T00:50:14.285Z,4.63
2023-03-17T00:54:20.514Z,4.47
2023-03-17T00:58:27.162Z,4.33
2023-03-17T01:02:30.916Z,4.50
2023-03-17T01:06:33.839Z,4.37
2023-03-17T01:10:38.254Z,4.20
2023-03-17T01:14:41.881Z,4.47
2023-03-17T01:18:45.568Z,4.07
2023-03-17T01:22:48.550Z,3.60
2023-03-17T01:26:54.403Z,3.30
2023-03-17T01:30:57.660Z,3.80
2023-03-17T01:35:00.339Z,3.40
2023-03-17T01:39:05.378Z,3.40
2023-03-17T01:43:21.460Z,3.20
2023-03-17T01:47:25.140Z,2.87
2023-03-17T01:51:32.438Z,3.30
2023-03-17T01:55:35.732Z,2.77
2023-03-17T01:59:45.486Z,3.00
2023-03-17T02:03:49.658Z,3.03
2023-03-17T02:07:52.495Z,2.80
2023-03-17T02:11:55.733Z,2.80
2023-03-17T02:16:00.355Z,2.73
2023-03-17T02:20:15.013Z,2.60
2023-03-17T02:24:24.547Z,2.43
2023-03-17T02:28:31.045Z,2.60
2023-03-17T02:32:36.603Z,2.63
2023-03-17T02:36:39.349Z,2.57
2023-03-17T02:40:43.354Z,2.70
2023-03-17T02:44:46.124Z,2.50
2023-03-17T02:48:48.907Z,2.60
2023-03-17T02:52:51.976Z,2.63
2023-03-17T02:56:59.334Z,2.57
2023-03-17T03:01:02.312Z,2.67
2023-03-17T03:05:06.266Z,2.80
2023-03-17T03:09:09.118Z,2.60
2023-03-17T03:13:13.496Z,2.33
2023-03-17T03:17:16.463Z,2.60
2023-03-17T03:21:19.833Z,2.93
2023-03-17T03:25:22.767Z,2.60
2023-03-17T03:29:27.191Z,3.10
2023-03-17T03:33:30.202Z,3.00
2023-03-17T03:37:33.133Z,3.03
2023-03-17T03:41:36.031Z,3.00
2023-03-17T03:45:40.492Z,3.53
2023-03-17T03:49:43.174Z,3.23
2023-03-17T03:53:46.888Z,3.43
2023-03-17T03:57:49.545Z,3.23
2023-03-17T04:01:53.790Z,3.57
2023-03-17T04:05:56.426Z,3.77
2023-03-17T04:09:59.768Z,3.60
2023-03-17T04:14:02.592Z,3.70
2023-03-17T04:18:06.668Z,3.70
2023-03-17T04:22:13.357Z,3.47
2023-03-17T04:26:17.736Z,3.20
2023-03-17T04:30:23.440Z,3.13
2023-03-17T04:34:28.163Z,3.40
2023-03-17T04:38:30.837Z,3.13
2023-03-17T04:42:33.481Z,3.23
2023-03-17T04:46:36.686Z,3.47
2023-03-17T04:50:40.703Z,3.47
2023-03-17T04:54:43.362Z,3.27
2023-03-17T04:58:46.557Z,3.40
2023-03-17T05:02:49.298Z,4.10
2023-03-17T05:06:53.308Z,4.07
2023-03-17T05:10:57.300Z,3.87
2023-03-17T05:15:00.336Z,4.27
2023-03-17T05:19:03.738Z,4.20
2023-03-17T05:23:07.775Z,4.33
2023-03-17T05:27:10.410Z,4.67
2023-03-17T05:31:13.161Z,4.80
2023-03-17T05:35:16.090Z,4.30
2023-03-17T05:39:20.590Z,4.70
2023-03-17T05:43:23.456Z,4.43
2023-03-17T05:47:26.600Z,4.47
2023-03-17T05:51:29.328Z,7.70
2023-03-17T05:55:33.847Z,5.47
2023-03-17T05:59:37.001Z,4.10
2023-03-17T06:03:39.783Z,3.83
2023-03-17T06:07:53.104Z,4.87
2023-03-17T06:11:59.776Z,3.70
2023-03-17T06:16:02.925Z,3.33
2023-03-17T06:20:06.706Z,3.63
2023-03-17T06:24:11.958Z,3.57
2023-03-17T06:28:17.420Z,3.80
2023-03-17T06:32:21.204Z,3.70
2023-03-17T06:36:24.260Z,3.57
2023-03-17T06:40:27.010Z,3.70
2023-03-17T06:44:31.965Z,3.93
2023-03-17T06:48:35.888Z,3.60
2023-03-17T06:52:38.797Z,3.03
2023-03-17T06:56:41.672Z,3.47
2023-03-17T07:00:47.103Z,3.90
2023-03-17T07:04:49.899Z,3.50
2023-03-17T07:08:52.623Z,3.47
2023-03-17T07:12:55.849Z,3.30
2023-03-17T07:17:01.061Z,2.87
2023-03-17T07:21:04.393Z,3.07
2023-03-17T07:25:09.833Z,3.07
2023-03-17T07:29:12.510Z,2.93
2023-03-17T07:33:17.771Z,3.10
2023-03-17T07:37:21.325Z,2.90
2023-03-17T07:41:24.016Z,2.70
2023-03-17T07:45:28.287Z,3.20
2023-03-17T07:49:41.308Z,3.00
2023-03-17T07:53:45.145Z,2.90
2023-03-17T07:57:47.901Z,2.80
2023-03-17T08:01:51.709Z,3.10
2023-03-17T08:05:56.043Z,3.10
2023-03-17T08:09:58.945Z,2.40
2023-03-17T08:14:03.417Z,3.10
2023-03-17T08:18:06.837Z,3.10
2023-03-17T08:22:11.321Z,2.70
2023-03-17T08:26:15.897Z,2.53
2023-03-17T08:30:20.782Z,2.40
2023-03-17T08:34:24.072Z,2.50
2023-03-17T08:38:28.361Z,2.40
2023-03-17T08:42:31.392Z,2.37
2023-03-17T08:46:34.439Z,2.60
2023-03-17T08:50:37.509Z,2.10
2023-03-17T08:54:41.565Z,2.00
2023-03-17T08:58:44.841Z,2.27
2023-03-17T09:02:48.293Z,2.27
2023-03-17T09:07:02.792Z,1.93
2023-03-17T09:11:10.398Z,1.80
2023-03-17T09:15:14.641Z,1.90
2023-03-17T09:19:17.884Z,1.73
2023-03-17T09:23:20.840Z,1.90
2023-03-17T09:27:24.970Z,2.03
2023-03-17T09:31:27.759Z,1.80
2023-03-17T09:35:32.997Z,1.67
2023-03-17T09:39:36.394Z,1.80
2023-03-17T09:43:45.222Z,1.63
2023-03-17T09:47:56.452Z,1.50
2023-03-17T09:51:59.348Z,1.90
2023-03-17T09:56:05.727Z,1.60
2023-03-17T10:00:14.644Z,1.83
2023-03-17T10:04:19.007Z,1.60
2023-03-17T10:08:31.089Z,1.70
2023-03-17T10:12:44.653Z,1.80
2023-03-17T10:16:53.907Z,1.30
2023-03-17T10:20:59.713Z,1.50
2023-03-17T10:25:05.276Z,1.73
2023-03-17T10:29:14.489Z,1.30
2023-03-17T10:33:18.496Z,1.40
2023-03-17T10:37:23.417Z,1.40
2023-03-17T10:41:26.344Z,1.43
2023-03-17T10:45:30.798Z,1.13
2023-03-17T10:49:37.690Z,1.40
2023-03-17T10:53:43.597Z,1.33
2023-03-17T10:57:52.764Z,1.50
2023-03-17T11:01:58.370Z,1.43
2023-03-17T11:06:05.089Z,1.50
2023-03-17T11:10:18.381Z,1.23
2023-03-17T11:14:28.000Z,1.20
2023-03-17T11:18:36.568Z,1.40
2023-03-17T11:22:42.906Z,1.50
2023-03-17T11:26:55.491Z,1.20
2023-03-17T11:31:04.639Z,1.20
2023-03-17T11:35:29.999Z,1.20
2023-03-17T11:39:37.984Z,1.40
2023-03-17T11:43:48.621Z,1.20
2023-03-17T11:48:14.831Z,1.20
2023-03-17T11:52:22.264Z,1.20
2023-03-17T11:56:35.143Z,1.20
2023-03-17T12:00:42.697Z,1.30
2023-03-17T12:04:51.614Z,0.93
2023-03-17T12:08:57.627Z,1.30
2023-03-17T12:13:04.777Z,1.20
2023-03-17T12:17:12.378Z,1.10
2023-03-17T12:21:21.410Z,1.03
2023-03-17T12:25:27.042Z,1.07
2023-03-17T12:29:42.924Z,1.00
2023-03-17T12:33:49.692Z,1.60
2023-03-17T12:37:52.465Z,0.93
2023-03-17T12:42:08.804Z,1.00
2023-03-17T12:46:23.335Z,1.00
2023-03-17T12:50:41.911Z,1.40
2023-03-17T12:54:47.876Z,1.17
2023-03-17T12:58:52.103Z,1.30
2023-03-17T13:03:13.200Z,1.03
2023-03-17T13:07:18.181Z,1.70
2023-03-17T13:11:28.230Z,1.00
2023-03-17T13:15:58.736Z,0.90
2023-03-17T13:20:14.367Z,1.00
2023-03-17T13:24:39.620Z,0.90
2023-03-17T13:28:45.413Z,0.90
2023-03-17T13:32:56.329Z,0.90
2023-03-17T13:37:05.395Z,0.90
2023-03-17T13:41:32.904Z,0.90
2023-03-17T13:45:39.276Z,0.90
2023-03-17T13:49:42.037Z,0.80
2023-03-17T13:53:50.916Z,1.10
2023-03-17T13:57:57.262Z,1.07
2023-03-17T14:02:04.948Z,0.93
2023-03-17T14:06:09.161Z,0.93
2023-03-17T14:10:21.652Z,0.87
2023-03-17T14:14:33.707Z,0.90
2023-03-17T14:18:37.766Z,0.80
2023-03-17T14:22:43.816Z,0.80
2023-03-17T14:26:50.247Z,0.80
2023-03-17T14:30:55.455Z,0.90
2023-03-17T14:34:59.619Z,0.93
2023-03-17T14:39:02.236Z,1.00
2023-03-17T14:43:06.745Z,0.70
2023-03-17T14:47:16.476Z,0.90
2023-03-17T14:51:26.522Z,0.77
2023-03-17T14:55:41.634Z,1.07
2023-03-17T14:59:57.026Z,0.80
2023-03-17T15:04:06.215Z,0.80
2023-03-17T15:08:45.910Z,1.00
2023-03-17T15:12:48.921Z,0.90
2023-03-17T15:16:53.973Z,0.70
2023-03-17T15:20:58.276Z,0.80
2023-03-17T15:25:02.710Z,0.90
2023-03-17T15:29:05.713Z,1.00
2023-03-17T15:33:21.065Z,0.70
2023-03-17T15:37:25.375Z,0.90
2023-03-17T15:41:28.365Z,0.90
2023-03-17T15:45:31.440Z,0.90
2023-03-17T15:49:35.953Z,0.80
2023-03-17T15:53:38.732Z,0.80
2023-03-17T15:57:42.879Z,1.00
2023-03-17T16:01:48.973Z,1.00
2023-03-17T16:05:53.046Z,1.33
2023-03-17T16:09:55.839Z,1.30
2023-03-17T16:14:01.231Z,1.63
2023-03-17T16:18:05.789Z,1.80
2023-03-17T16:22:16.728Z,1.93
2023-03-17T16:26:19.701Z,1.50
2023-03-17T16:30:24.576Z,1.40
2023-03-17T16:34:27.354Z,1.20
2023-03-17T16:38:33.346Z,2.57
2023-03-17T16:42:36.044Z,2.20
2023-03-17T16:46:44.836Z,1.73
2023-03-17T16:50:47.697Z,1.60
2023-03-17T16:54:51.708Z,1.53
2023-03-17T16:58:54.413Z,1.40
2023-03-17T17:02:57.447Z,1.80
2023-03-17T17:07:00.085Z,1.70
2023-03-17T17:11:04.342Z,1.80
2023-03-17T17:15:08.059Z,2.20
2023-03-17T17:19:15.729Z,2.73
2023-03-17T17:23:20.751Z,2.57
2023-03-17T17:27:26.004Z,2.17
2023-03-17T17:31:29.717Z,2.40
2023-03-17T17:35:33.812Z,2.17
2023-03-17T17:39:36.810Z,1.90
2023-03-17T17:43:41.337Z,2.60
2023-03-17T17:47:44.221Z,2.20
2023-03-17T17:51:46.898Z,2.80
2023-03-17T17:55:50.545Z,3.53
2023-03-17T17:59:54.785Z,3.30
2023-03-17T18:03:57.723Z,3.80
2023-03-17T18:08:02.381Z,3.20
2023-03-17T18:12:05.780Z,2.97
2023-03-17T18:16:10.783Z,3.20
2023-03-17T18:20:18.184Z,2.77
2023-03-17T18:24:21.151Z,2.77
2023-03-17T18:28:24.097Z,3.37
2023-03-17T18:32:28.938Z,3.67
2023-03-17T18:36:31.622Z,3.60
2023-03-17T18:40:34.885Z,4.23
2023-03-17T18:44:37.939Z,4.07
2023-03-17T18:48:42.218Z,4.50
2023-03-17T18:52:45.815Z,4.10
2023-03-17T18:56:49.015Z,3.27
2023-03-17T19:00:53.289Z,3.60
2023-03-17T19:04:57.350Z,3.00
2023-03-17T19:09:00.056Z,3.63
2023-03-17T19:13:04.365Z,3.00
2023-03-17T19:17:07.573Z,2.97
2023-03-17T19:21:13.027Z,3.13
2023-03-17T19:25:16.580Z,3.20
2023-03-17T19:29:19.250Z,3.10
2023-03-17T19:33:21.929Z,4.17
2023-03-17T19:37:26.051Z,4.43
2023-03-17T19:41:32.264Z,3.37
2023-03-17T19:45:35.362Z,3.20
2023-03-17T19:49:39.325Z,3.67
2023-03-17T19:53:43.653Z,3.43
2023-03-17T19:57:46.300Z,4.33
2023-03-17T20:01:49.148Z,3.70
2023-03-17T20:05:53.431Z,4.00
2023-03-17T20:09:57.466Z,3.30
2023-03-17T20:14:00.265Z,5.45
2023-03-17T20:18:03.834Z,12.10
2023-03-17T20:22:07.114Z,12.87
2023-03-17T20:26:11.518Z,5.33
2023-03-17T20:30:15.283Z,4.10
2023-03-17T20:34:17.981Z,3.97
2023-03-17T20:38:21.277Z,3.70
2023-03-17T20:42:28.122Z,3.43
2023-03-17T20:46:31.211Z,3.77
2023-03-17T20:50:34.495Z,3.83
2023-03-17T20:54:37.203Z,3.97
2023-03-17T20:58:41.513Z,4.10
2023-03-17T21:02:44.375Z,4.30
2023-03-17T21:06:49.705Z,4.23
2023-03-17T21:10:52.641Z,3.70
2023-03-17T21:14:56.680Z,4.90
2023-03-17T21:18:59.981Z,5.10
2023-03-17T21:23:04.509Z,5.93
2023-03-17T21:27:09.592Z,5.43
2023-03-17T21:31:15.879Z,8.30
2023-03-17T21:35:18.672Z,6.20
2023-03-17T21:39:21.849Z,6.30
2023-03-17T21:43:24.766Z,6.57
2023-03-17T21:47:29.921Z,7.80
2023-03-17T21:51:33.004Z,8.13
2023-03-17T21:55:36.074Z,5.73
2023-03-17T21:59:39.974Z,5.27
2023-03-17T22:03:44.531Z,6.60
2023-03-17T22:07:47.228Z,15.37
2023-03-17T22:11:49.915Z,12.43
2023-03-17T22:15:53.111Z,6.67
2023-03-17T22:19:57.822Z,7.60
2023-03-17T22:24:00.944Z,11.57
2023-03-17T22:28:03.604Z,19.43
2023-03-17T22:32:07.083Z,12.67
2023-03-17T22:36:11.473Z,9.80
2023-03-17T22:40:14.771Z,7.80
2023-03-17T22:44:17.470Z,6.90
2023-03-17T22:48:20.148Z,5.53
2023-03-17T22:52:24.503Z,5.30
2023-03-17T22:56:27.718Z,5.97
2023-03-17T23:00:32.279Z,4.70
2023-03-17T23:04:35.876Z,4.80
2023-03-17T23:08:40.801Z,4.43
2023-03-17T23:12:43.970Z,4.47
2023-03-17T23:16:47.003Z,4.57
2023-03-17T23:20:49.888Z,5.20
2023-03-17T23:24:53.910Z,5.13
2023-03-17T23:28:56.591Z,4.60
2023-03-17T23:32:59.427Z,4.90
2023-03-17T23:37:02.797Z,6.20
2023-03-17T23:41:07.571Z,5.73
2023-03-17T23:45:10.855Z,4.53
2023-03-17T23:49:13.549Z,4.10
2023-03-17T23:53:16.867Z,4.40
2023-03-17T23:57:20.979Z,4.03
